sensor_id;sensor_type;location;lat;lon;timestamp;temperature;humidity
69208;SHT31;56321;47.662;8.878;2023-02-28T00:00:06;1.12;61.84
69208;SHT31;56321;47.662;8.878;2023-02-28T00:02:40;1.16;61.67
69208;SHT31;56321;47.662;8.878;2023-02-28T00:05:06;1.18;61.48
69208;SHT31;56321;47.662;8.878;2023-02-28T00:07:32;1.16;61.51
69208;SHT31;56321;47.662;8.878;2023-02-28T00:09:57;1.11;61.56
69208;SHT31;56321;47.662;8.878;2023-02-28T00:12:23;1.06;61.72
69208;SHT31;56321;47.662;8.878;2023-02-28T00:14:49;1.08;61.66
69208;SHT31;56321;47.662;8.878;2023-02-28T00:17:15;1.11;61.81
69208;SHT31;56321;47.662;8.878;2023-02-28T00:19:43;1.08;61.52
69208;SHT31;56321;47.662;8.878;2023-02-28T00:22:08;1.06;61.72
69208;SHT31;56321;47.662;8.878;2023-02-28T00:24:34;1.06;61.71
69208;SHT31;56321;47.662;8.878;2023-02-28T00:26:59;1.12;61.77
69208;SHT31;56321;47.662;8.878;2023-02-28T00:29:24;1.09;61.63
69208;SHT31;56321;47.662;8.878;2023-02-28T00:31:49;1.08;61.55
69208;SHT31;56321;47.662;8.878;2023-02-28T00:34:15;1.05;61.65
69208;SHT31;56321;47.662;8.878;2023-02-28T00:36:40;1.05;61.63
69208;SHT31;56321;47.662;8.878;2023-02-28T00:39:10;1.08;61.68
69208;SHT31;56321;47.662;8.878;2023-02-28T00:41:36;1.08;61.74
69208;SHT31;56321;47.662;8.878;2023-02-28T00:44:01;1.15;61.93
69208;SHT31;56321;47.662;8.878;2023-02-28T00:46:26;1.21;61.68
69208;SHT31;56321;47.662;8.878;2023-02-28T00:48:51;1.19;61.48
69208;SHT31;56321;47.662;8.878;2023-02-28T00:51:17;1.18;61.34
69208;SHT31;56321;47.662;8.878;2023-02-28T00:53:42;1.15;61.42
69208;SHT31;56321;47.662;8.878;2023-02-28T00:56:07;1.12;61.50
69208;SHT31;56321;47.662;8.878;2023-02-28T00:58:33;1.11;61.54
69208;SHT31;56321;47.662;8.878;2023-02-28T01:00:58;1.09;61.49
69208;SHT31;56321;47.662;8.878;2023-02-28T01:03:23;1.08;61.65
69208;SHT31;56321;47.662;8.878;2023-02-28T01:05:49;1.08;61.62
69208;SHT31;56321;47.662;8.878;2023-02-28T01:08:15;1.06;61.50
69208;SHT31;56321;47.662;8.878;2023-02-28T01:10:40;1.01;61.79
69208;SHT31;56321;47.662;8.878;2023-02-28T01:13:06;1.04;61.79
69208;SHT31;56321;47.662;8.878;2023-02-28T01:15:31;1.11;61.86
69208;SHT31;56321;47.662;8.878;2023-02-28T01:17:58;1.14;61.67
69208;SHT31;56321;47.662;8.878;2023-02-28T01:20:23;1.16;61.52
69208;SHT31;56321;47.662;8.878;2023-02-28T01:22:49;1.09;61.55
69208;SHT31;56321;47.662;8.878;2023-02-28T01:25:14;1.06;61.62
69208;SHT31;56321;47.662;8.878;2023-02-28T01:27:39;1.02;61.79
69208;SHT31;56321;47.662;8.878;2023-02-28T01:30:07;1.02;61.88
69208;SHT31;56321;47.662;8.878;2023-02-28T01:32:32;1.05;62.07
69208;SHT31;56321;47.662;8.878;2023-02-28T01:34:57;1.14;61.98
69208;SHT31;56321;47.662;8.878;2023-02-28T01:37:23;1.12;61.71
69208;SHT31;56321;47.662;8.878;2023-02-28T01:39:48;1.11;61.87
69208;SHT31;56321;47.662;8.878;2023-02-28T01:42:13;1.09;61.70
69208;SHT31;56321;47.662;8.878;2023-02-28T01:44:59;1.04;61.89
69208;SHT31;56321;47.662;8.878;2023-02-28T01:47:31;1.05;61.89
69208;SHT31;56321;47.662;8.878;2023-02-28T01:49:58;1.08;61.98
69208;SHT31;56321;47.662;8.878;2023-02-28T01:52:24;1.14;61.92
69208;SHT31;56321;47.662;8.878;2023-02-28T01:54:52;1.16;61.94
69208;SHT31;56321;47.662;8.878;2023-02-28T01:57:22;1.16;61.64
69208;SHT31;56321;47.662;8.878;2023-02-28T01:59:56;1.15;61.69
69208;SHT31;56321;47.662;8.878;2023-02-28T02:02:24;1.21;61.96
69208;SHT31;56321;47.662;8.878;2023-02-28T02:04:54;1.25;61.90
69208;SHT31;56321;47.662;8.878;2023-02-28T02:07:20;1.33;61.86
69208;SHT31;56321;47.662;8.878;2023-02-28T02:09:46;1.33;61.39
69208;SHT31;56321;47.662;8.878;2023-02-28T02:15:12;1.29;61.36
69208;SHT31;56321;47.662;8.878;2023-02-28T02:17:42;1.29;61.60
69208;SHT31;56321;47.662;8.878;2023-02-28T02:20:32;1.33;61.46
69208;SHT31;56321;47.662;8.878;2023-02-28T02:29:33;1.25;61.50
69208;SHT31;56321;47.662;8.878;2023-02-28T02:32:04;1.24;61.50
69208;SHT31;56321;47.662;8.878;2023-02-28T02:37:29;1.31;61.59
69208;SHT31;56321;47.662;8.878;2023-02-28T02:43:24;1.32;61.37
69208;SHT31;56321;47.662;8.878;2023-02-28T02:46:00;1.31;61.16
69208;SHT31;56321;47.662;8.878;2023-02-28T02:48:30;1.28;61.23
69208;SHT31;56321;47.662;8.878;2023-02-28T02:51:00;1.24;61.30
69208;SHT31;56321;47.662;8.878;2023-02-28T02:53:36;1.11;61.42
69208;SHT31;56321;47.662;8.878;2023-02-28T02:56:04;1.14;61.67
69208;SHT31;56321;47.662;8.878;2023-02-28T02:58:35;1.16;61.71
69208;SHT31;56321;47.662;8.878;2023-02-28T03:01:06;1.16;61.53
69208;SHT31;56321;47.662;8.878;2023-02-28T03:03:32;1.21;61.60
69208;SHT31;56321;47.662;8.878;2023-02-28T03:06:00;1.26;61.68
69208;SHT31;56321;47.662;8.878;2023-02-28T03:08:26;1.28;61.55
69208;SHT31;56321;47.662;8.878;2023-02-28T03:10:57;1.36;61.71
69208;SHT31;56321;47.662;8.878;2023-02-28T03:13:45;1.42;61.45
69208;SHT31;56321;47.662;8.878;2023-02-28T03:16:35;1.44;61.43
69208;SHT31;56321;47.662;8.878;2023-02-28T03:27:18;1.33;61.34
69208;SHT31;56321;47.662;8.878;2023-02-28T03:32:40;1.42;61.32
69208;SHT31;56321;47.662;8.878;2023-02-28T03:35:16;1.46;61.30
69208;SHT31;56321;47.662;8.878;2023-02-28T03:37:49;1.50;60.92
69208;SHT31;56321;47.662;8.878;2023-02-28T03:40:17;1.46;60.83
69208;SHT31;56321;47.662;8.878;2023-02-28T03:42:48;1.47;61.03
69208;SHT31;56321;47.662;8.878;2023-02-28T03:45:27;1.47;60.91
69208;SHT31;56321;47.662;8.878;2023-02-28T03:47:57;1.49;60.94
69208;SHT31;56321;47.662;8.878;2023-02-28T03:53:25;1.46;60.67
69208;SHT31;56321;47.662;8.878;2023-02-28T03:56:16;1.43;60.73
69208;SHT31;56321;47.662;8.878;2023-02-28T03:59:02;1.40;60.55
69208;SHT31;56321;47.662;8.878;2023-02-28T04:01:38;1.39;60.53
69208;SHT31;56321;47.662;8.878;2023-02-28T04:04:07;1.35;60.76
69208;SHT31;56321;47.662;8.878;2023-02-28T04:06:33;1.32;60.72
69208;SHT31;56321;47.662;8.878;2023-02-28T04:08:59;1.33;60.94
69208;SHT31;56321;47.662;8.878;2023-02-28T04:11:44;1.32;60.51
69208;SHT31;56321;47.662;8.878;2023-02-28T04:14:11;1.25;60.56
69208;SHT31;56321;47.662;8.878;2023-02-28T04:16:39;1.19;60.84
69208;SHT31;56321;47.662;8.878;2023-02-28T04:19:06;1.21;60.94
69208;SHT31;56321;47.662;8.878;2023-02-28T04:21:36;1.16;61.00
69208;SHT31;56321;47.662;8.878;2023-02-28T04:24:03;1.26;61.08
69208;SHT31;56321;47.662;8.878;2023-02-28T04:26:35;1.25;60.92
69208;SHT31;56321;47.662;8.878;2023-02-28T04:29:03;1.29;60.89
69208;SHT31;56321;47.662;8.878;2023-02-28T04:31:29;1.28;60.72
69208;SHT31;56321;47.662;8.878;2023-02-28T04:33:54;1.26;60.82
69208;SHT31;56321;47.662;8.878;2023-02-28T04:36:20;1.25;60.71
69208;SHT31;56321;47.662;8.878;2023-02-28T04:38:46;1.24;60.87
69208;SHT31;56321;47.662;8.878;2023-02-28T04:41:14;1.26;61.01
69208;SHT31;56321;47.662;8.878;2023-02-28T04:43:40;1.35;61.14
69208;SHT31;56321;47.662;8.878;2023-02-28T04:46:06;1.36;60.73
69208;SHT31;56321;47.662;8.878;2023-02-28T04:48:33;1.32;60.60
69208;SHT31;56321;47.662;8.878;2023-02-28T04:51:06;1.29;60.59
69208;SHT31;56321;47.662;8.878;2023-02-28T04:53:32;1.24;60.71
69208;SHT31;56321;47.662;8.878;2023-02-28T04:55:57;1.18;60.72
69208;SHT31;56321;47.662;8.878;2023-02-28T04:58:23;1.06;60.71
69208;SHT31;56321;47.662;8.878;2023-02-28T05:00:52;1.05;60.99
69208;SHT31;56321;47.662;8.878;2023-02-28T05:03:18;1.04;61.01
69208;SHT31;56321;47.662;8.878;2023-02-28T05:05:46;1.08;61.27
69208;SHT31;56321;47.662;8.878;2023-02-28T05:08:11;1.14;61.34
69208;SHT31;56321;47.662;8.878;2023-02-28T05:10:36;1.24;61.12
69208;SHT31;56321;47.662;8.878;2023-02-28T05:13:02;1.22;60.99
69208;SHT31;56321;47.662;8.878;2023-02-28T05:15:27;1.18;60.81
69208;SHT31;56321;47.662;8.878;2023-02-28T05:17:53;1.16;60.95
69208;SHT31;56321;47.662;8.878;2023-02-28T05:20:18;1.16;61.06
69208;SHT31;56321;47.662;8.878;2023-02-28T05:22:43;1.24;61.25
69208;SHT31;56321;47.662;8.878;2023-02-28T05:25:15;1.29;60.96
69208;SHT31;56321;47.662;8.878;2023-02-28T05:27:41;1.29;60.97
69208;SHT31;56321;47.662;8.878;2023-02-28T05:30:07;1.36;60.90
69208;SHT31;56321;47.662;8.878;2023-02-28T05:32:38;1.40;60.94
69208;SHT31;56321;47.662;8.878;2023-02-28T05:35:04;1.42;60.56
69208;SHT31;56321;47.662;8.878;2023-02-28T05:37:29;1.43;60.67
69208;SHT31;56321;47.662;8.878;2023-02-28T05:39:55;1.44;60.35
69208;SHT31;56321;47.662;8.878;2023-02-28T05:42:20;1.43;60.31
69208;SHT31;56321;47.662;8.878;2023-02-28T05:44:46;1.39;60.16
69208;SHT31;56321;47.662;8.878;2023-02-28T05:47:11;1.26;59.95
69208;SHT31;56321;47.662;8.878;2023-02-28T05:49:40;1.22;60.41
69208;SHT31;56321;47.662;8.878;2023-02-28T05:52:06;1.22;60.39
69208;SHT31;56321;47.662;8.878;2023-02-28T05:54:31;1.25;60.41
69208;SHT31;56321;47.662;8.878;2023-02-28T05:56:56;1.24;60.55
69208;SHT31;56321;47.662;8.878;2023-02-28T05:59:22;1.28;60.58
69208;SHT31;56321;47.662;8.878;2023-02-28T06:01:47;1.36;60.44
69208;SHT31;56321;47.662;8.878;2023-02-28T06:04:17;1.40;60.09
69208;SHT31;56321;47.662;8.878;2023-02-28T06:06:48;1.40;60.16
69208;SHT31;56321;47.662;8.878;2023-02-28T06:09:15;1.42;60.18
69208;SHT31;56321;47.662;8.878;2023-02-28T06:11:40;1.46;59.99
69208;SHT31;56321;47.662;8.878;2023-02-28T06:14:07;1.46;60.02
69208;SHT31;56321;47.662;8.878;2023-02-28T06:16:37;1.46;59.93
69208;SHT31;56321;47.662;8.878;2023-02-28T06:19:03;1.43;59.99
69208;SHT31;56321;47.662;8.878;2023-02-28T06:21:29;1.46;59.94
69208;SHT31;56321;47.662;8.878;2023-02-28T06:23:56;1.43;59.57
69208;SHT31;56321;47.662;8.878;2023-02-28T06:26:22;1.38;59.51
69208;SHT31;56321;47.662;8.878;2023-02-28T06:28:48;1.35;59.70
69208;SHT31;56321;47.662;8.878;2023-02-28T06:31:16;1.31;59.64
69208;SHT31;56321;47.662;8.878;2023-02-28T06:33:43;1.31;59.94
69208;SHT31;56321;47.662;8.878;2023-02-28T06:36:10;1.28;59.73
69208;SHT31;56321;47.662;8.878;2023-02-28T06:38:37;1.25;59.87
69208;SHT31;56321;47.662;8.878;2023-02-28T06:41:03;1.25;59.84
69208;SHT31;56321;47.662;8.878;2023-02-28T06:43:30;1.28;59.94
69208;SHT31;56321;47.662;8.878;2023-02-28T06:45:57;1.31;59.92
69208;SHT31;56321;47.662;8.878;2023-02-28T06:48:24;1.28;59.65
69208;SHT31;56321;47.662;8.878;2023-02-28T06:50:50;1.22;59.61
69208;SHT31;56321;47.662;8.878;2023-02-28T06:53:16;1.15;59.85
69208;SHT31;56321;47.662;8.878;2023-02-28T06:55:41;1.11;59.78
69208;SHT31;56321;47.662;8.878;2023-02-28T06:58:07;1.04;59.83
69208;SHT31;56321;47.662;8.878;2023-02-28T07:00:44;0.99;60.18
69208;SHT31;56321;47.662;8.878;2023-02-28T07:03:11;0.99;60.35
69208;SHT31;56321;47.662;8.878;2023-02-28T07:05:37;1.09;60.29
69208;SHT31;56321;47.662;8.878;2023-02-28T07:08:03;1.09;60.19
69208;SHT31;56321;47.662;8.878;2023-02-28T07:10:30;1.08;60.18
69208;SHT31;56321;47.662;8.878;2023-02-28T07:12:55;1.14;60.34
69208;SHT31;56321;47.662;8.878;2023-02-28T07:15:20;1.14;60.33
69208;SHT31;56321;47.662;8.878;2023-02-28T07:17:46;1.18;60.37
69208;SHT31;56321;47.662;8.878;2023-02-28T07:20:11;1.24;60.27
69208;SHT31;56321;47.662;8.878;2023-02-28T07:22:37;1.29;60.32
69208;SHT31;56321;47.662;8.878;2023-02-28T07:25:04;1.29;59.98
69208;SHT31;56321;47.662;8.878;2023-02-28T07:27:29;1.31;60.06
69208;SHT31;56321;47.662;8.878;2023-02-28T07:29:54;1.31;60.05
69208;SHT31;56321;47.662;8.878;2023-02-28T07:32:20;1.31;59.87
69208;SHT31;56321;47.662;8.878;2023-02-28T07:34:45;1.28;59.79
69208;SHT31;56321;47.662;8.878;2023-02-28T07:37:11;1.26;59.87
69208;SHT31;56321;47.662;8.878;2023-02-28T07:39:36;1.24;59.98
69208;SHT31;56321;47.662;8.878;2023-02-28T07:42:05;1.25;60.18
69208;SHT31;56321;47.662;8.878;2023-02-28T07:44:31;1.29;60.26
69208;SHT31;56321;47.662;8.878;2023-02-28T07:46:57;1.33;60.03
69208;SHT31;56321;47.662;8.878;2023-02-28T07:49:22;1.25;59.89
69208;SHT31;56321;47.662;8.878;2023-02-28T07:51:48;1.21;60.05
69208;SHT31;56321;47.662;8.878;2023-02-28T07:54:13;1.14;60.23
69208;SHT31;56321;47.662;8.878;2023-02-28T07:56:38;1.18;60.49
69208;SHT31;56321;47.662;8.878;2023-02-28T07:59:04;1.24;60.27
69208;SHT31;56321;47.662;8.878;2023-02-28T08:01:29;1.29;60.19
69208;SHT31;56321;47.662;8.878;2023-02-28T08:03:54;1.29;60.11
69208;SHT31;56321;47.662;8.878;2023-02-28T08:06:24;1.32;60.15
69208;SHT31;56321;47.662;8.878;2023-02-28T08:08:50;1.38;60.27
69208;SHT31;56321;47.662;8.878;2023-02-28T08:11:16;1.43;59.97
69208;SHT31;56321;47.662;8.878;2023-02-28T08:13:42;1.47;59.94
69208;SHT31;56321;47.662;8.878;2023-02-28T08:16:09;1.52;59.95
69208;SHT31;56321;47.662;8.878;2023-02-28T08:18:35;1.53;59.59
69208;SHT31;56321;47.662;8.878;2023-02-28T08:21:06;1.49;59.58
69208;SHT31;56321;47.662;8.878;2023-02-28T08:23:31;1.49;59.77
69208;SHT31;56321;47.662;8.878;2023-02-28T08:25:58;1.54;59.63
69208;SHT31;56321;47.662;8.878;2023-02-28T08:28:24;1.53;59.62
69208;SHT31;56321;47.662;8.878;2023-02-28T08:30:49;1.56;59.81
69208;SHT31;56321;47.662;8.878;2023-02-28T08:33:14;1.57;59.82
69208;SHT31;56321;47.662;8.878;2023-02-28T08:35:40;1.63;59.70
69208;SHT31;56321;47.662;8.878;2023-02-28T08:38:05;1.64;59.74
69208;SHT31;56321;47.662;8.878;2023-02-28T08:40:30;1.67;59.66
69208;SHT31;56321;47.662;8.878;2023-02-28T08:42:56;1.66;59.23
69208;SHT31;56321;47.662;8.878;2023-02-28T08:45:21;1.59;59.28
69208;SHT31;56321;47.662;8.878;2023-02-28T08:47:46;1.54;59.40
69208;SHT31;56321;47.662;8.878;2023-02-28T08:50:12;1.54;59.73
69208;SHT31;56321;47.662;8.878;2023-02-28T08:52:42;1.64;60.12
69208;SHT31;56321;47.662;8.878;2023-02-28T08:55:08;1.71;59.74
69208;SHT31;56321;47.662;8.878;2023-02-28T08:57:34;1.73;59.60
69208;SHT31;56321;47.662;8.878;2023-02-28T08:59:59;1.78;59.61
69208;SHT31;56321;47.662;8.878;2023-02-28T09:02:25;1.78;59.53
69208;SHT31;56321;47.662;8.878;2023-02-28T09:04:50;1.78;59.54
69208;SHT31;56321;47.662;8.878;2023-02-28T09:07:16;1.80;59.50
69208;SHT31;56321;47.662;8.878;2023-02-28T09:09:41;1.85;59.60
69208;SHT31;56321;47.662;8.878;2023-02-28T09:12:25;1.85;59.48
69208;SHT31;56321;47.662;8.878;2023-02-28T09:14:51;1.84;59.41
69208;SHT31;56321;47.662;8.878;2023-02-28T09:17:17;1.88;59.69
69208;SHT31;56321;47.662;8.878;2023-02-28T09:19:42;1.94;59.55
69208;SHT31;56321;47.662;8.878;2023-02-28T09:22:09;2.01;59.51
69208;SHT31;56321;47.662;8.878;2023-02-28T09:24:36;2.02;58.91
69208;SHT31;56321;47.662;8.878;2023-02-28T09:27:02;1.97;58.99
69208;SHT31;56321;47.662;8.878;2023-02-28T09:29:27;1.93;58.94
69208;SHT31;56321;47.662;8.878;2023-02-28T09:31:52;1.95;59.13
69208;SHT31;56321;47.662;8.878;2023-02-28T09:34:18;1.93;59.01
69208;SHT31;56321;47.662;8.878;2023-02-28T09:36:43;1.84;58.81
69208;SHT31;56321;47.662;8.878;2023-02-28T09:39:09;1.78;59.09
69208;SHT31;56321;47.662;8.878;2023-02-28T09:41:45;1.78;59.16
69208;SHT31;56321;47.662;8.878;2023-02-28T09:44:42;1.81;59.44
69208;SHT31;56321;47.662;8.878;2023-02-28T09:50:06;1.80;59.21
69208;SHT31;56321;47.662;8.878;2023-02-28T09:52:34;1.78;59.05
69208;SHT31;56321;47.662;8.878;2023-02-28T09:57:41;1.73;59.06
69208;SHT31;56321;47.662;8.878;2023-02-28T10:00:33;1.74;58.95
69208;SHT31;56321;47.662;8.878;2023-02-28T10:03:31;1.75;59.34
69208;SHT31;56321;47.662;8.878;2023-02-28T10:06:17;1.87;59.35
69208;SHT31;56321;47.662;8.878;2023-02-28T10:09:14;1.90;59.03
69208;SHT31;56321;47.662;8.878;2023-02-28T10:11:42;1.98;59.31
69208;SHT31;56321;47.662;8.878;2023-02-28T10:14:18;2.02;58.92
69208;SHT31;56321;47.662;8.878;2023-02-28T10:21:55;2.07;58.71
69208;SHT31;56321;47.662;8.878;2023-02-28T10:24:32;2.08;58.71
69208;SHT31;56321;47.662;8.878;2023-02-28T10:27:04;2.04;58.48
69208;SHT31;56321;47.662;8.878;2023-02-28T10:29:34;2.01;58.92
69208;SHT31;56321;47.662;8.878;2023-02-28T10:32:02;2.04;58.87
69208;SHT31;56321;47.662;8.878;2023-02-28T10:34:28;2.04;58.77
69208;SHT31;56321;47.662;8.878;2023-02-28T10:36:53;2.00;58.74
69208;SHT31;56321;47.662;8.878;2023-02-28T10:42:27;2.02;59.16
69208;SHT31;56321;47.662;8.878;2023-02-28T10:47:49;2.07;58.85
69208;SHT31;56321;47.662;8.878;2023-02-28T10:50:32;2.00;58.58
69208;SHT31;56321;47.662;8.878;2023-02-28T10:55:35;2.01;58.94
69208;SHT31;56321;47.662;8.878;2023-02-28T10:58:01;1.97;58.71
69208;SHT31;56321;47.662;8.878;2023-02-28T11:00:33;1.97;58.88
69208;SHT31;56321;47.662;8.878;2023-02-28T11:02:58;1.95;59.05
69208;SHT31;56321;47.662;8.878;2023-02-28T11:05:35;2.02;59.19
69208;SHT31;56321;47.662;8.878;2023-02-28T11:08:14;2.11;58.99
69208;SHT31;56321;47.662;8.878;2023-02-28T11:10:48;2.04;58.48
69208;SHT31;56321;47.662;8.878;2023-02-28T11:13:19;1.98;58.80
69208;SHT31;56321;47.662;8.878;2023-02-28T11:15:51;2.00;59.02
69208;SHT31;56321;47.662;8.878;2023-02-28T11:18:44;1.93;58.46
69208;SHT31;56321;47.662;8.878;2023-02-28T11:21:16;1.91;59.14
69208;SHT31;56321;47.662;8.878;2023-02-28T11:23:43;1.98;59.34
69208;SHT31;56321;47.662;8.878;2023-02-28T11:26:09;2.02;59.32
69208;SHT31;56321;47.662;8.878;2023-02-28T11:28:39;2.08;59.15
69208;SHT31;56321;47.662;8.878;2023-02-28T11:33:51;2.15;58.98
69208;SHT31;56321;47.662;8.878;2023-02-28T11:36:25;2.21;59.31
69208;SHT31;56321;47.662;8.878;2023-02-28T11:38:55;2.33;59.12
69208;SHT31;56321;47.662;8.878;2023-02-28T11:47:47;2.43;58.44
69208;SHT31;56321;47.662;8.878;2023-02-28T11:52:55;2.48;58.90
69208;SHT31;56321;47.662;8.878;2023-02-28T11:58:27;2.70;58.81
69208;SHT31;56321;47.662;8.878;2023-02-28T12:01:21;2.81;58.31
69208;SHT31;56321;47.662;8.878;2023-02-28T12:12:12;2.70;58.26
69208;SHT31;56321;47.662;8.878;2023-02-28T12:17:36;2.84;58.68
69208;SHT31;56321;47.662;8.878;2023-02-28T12:20:13;2.93;58.37
69208;SHT31;56321;47.662;8.878;2023-02-28T12:26:09;3.08;57.74
69208;SHT31;56321;47.662;8.878;2023-02-28T12:28:42;3.11;58.10
69208;SHT31;56321;47.662;8.878;2023-02-28T12:31:20;3.05;57.37
69208;SHT31;56321;47.662;8.878;2023-02-28T12:33:56;2.97;57.86
69208;SHT31;56321;47.662;8.878;2023-02-28T12:36:24;2.94;57.99
69208;SHT31;56321;47.662;8.878;2023-02-28T12:39:28;2.83;57.21
69208;SHT31;56321;47.662;8.878;2023-02-28T12:42:05;2.76;57.90
69208;SHT31;56321;47.662;8.878;2023-02-28T12:44:54;2.76;58.29
69208;SHT31;56321;47.662;8.878;2023-02-28T12:47:21;2.73;58.09
69208;SHT31;56321;47.662;8.878;2023-02-28T12:52:13;2.77;58.24
69208;SHT31;56321;47.662;8.878;2023-02-28T12:55:03;2.79;58.19
69208;SHT31;56321;47.662;8.878;2023-02-28T12:57:45;2.79;58.42
69208;SHT31;56321;47.662;8.878;2023-02-28T13:00:17;2.86;58.40
69208;SHT31;56321;47.662;8.878;2023-02-28T13:02:59;2.91;58.30
69208;SHT31;56321;47.662;8.878;2023-02-28T13:05:55;2.81;57.80
69208;SHT31;56321;47.662;8.878;2023-02-28T13:08:59;2.79;58.13
69208;SHT31;56321;47.662;8.878;2023-02-28T13:11:25;2.80;58.23
69208;SHT31;56321;47.662;8.878;2023-02-28T13:14:05;2.77;58.05
69208;SHT31;56321;47.662;8.878;2023-02-28T13:16:54;2.76;58.31
69208;SHT31;56321;47.662;8.878;2023-02-28T13:19:21;2.73;58.19
69208;SHT31;56321;47.662;8.878;2023-02-28T13:21:50;2.70;58.33
69208;SHT31;56321;47.662;8.878;2023-02-28T13:29:42;2.80;58.37
69208;SHT31;56321;47.662;8.878;2023-02-28T13:34:41;2.83;58.51
69208;SHT31;56321;47.662;8.878;2023-02-28T13:47:42;2.80;58.30
69208;SHT31;56321;47.662;8.878;2023-02-28T13:55:46;2.84;58.56
69208;SHT31;56321;47.662;8.878;2023-02-28T14:06:38;2.83;59.08
69208;SHT31;56321;47.662;8.878;2023-02-28T14:09:27;2.93;58.96
69208;SHT31;56321;47.662;8.878;2023-02-28T14:11:54;3.04;58.72
69208;SHT31;56321;47.662;8.878;2023-02-28T14:17:01;3.03;58.28
69208;SHT31;56321;47.662;8.878;2023-02-28T14:19:30;3.05;58.56
69208;SHT31;56321;47.662;8.878;2023-02-28T14:32:32;2.96;58.14
69208;SHT31;56321;47.662;8.878;2023-02-28T14:37:45;2.97;58.47
69208;SHT31;56321;47.662;8.878;2023-02-28T14:40:15;3.00;58.49
69208;SHT31;56321;47.662;8.878;2023-02-28T14:42:47;2.97;58.26
69208;SHT31;56321;47.662;8.878;2023-02-28T14:45:20;2.97;58.36
69208;SHT31;56321;47.662;8.878;2023-02-28T14:47:47;2.90;58.24
69208;SHT31;56321;47.662;8.878;2023-02-28T14:50:21;2.91;58.64
69208;SHT31;56321;47.662;8.878;2023-02-28T14:52:51;2.97;58.71
69208;SHT31;56321;47.662;8.878;2023-02-28T14:55:18;3.00;58.69
69208;SHT31;56321;47.662;8.878;2023-02-28T14:57:53;3.05;58.51
69208;SHT31;56321;47.662;8.878;2023-02-28T15:00:23;3.07;58.34
69208;SHT31;56321;47.662;8.878;2023-02-28T15:02:49;3.07;57.99
69208;SHT31;56321;47.662;8.878;2023-02-28T15:07:44;3.04;58.20
69208;SHT31;56321;47.662;8.878;2023-02-28T15:12:49;3.08;58.11
69208;SHT31;56321;47.662;8.878;2023-02-28T15:15:17;3.08;58.12
69208;SHT31;56321;47.662;8.878;2023-02-28T15:17:48;3.08;57.90
69208;SHT31;56321;47.662;8.878;2023-02-28T15:20:15;3.09;58.32
69208;SHT31;56321;47.662;8.878;2023-02-28T15:22:41;3.12;57.79
69208;SHT31;56321;47.662;8.878;2023-02-28T15:25:10;3.07;57.78
69208;SHT31;56321;47.662;8.878;2023-02-28T15:27:44;2.96;57.88
69208;SHT31;56321;47.662;8.878;2023-02-28T15:30:22;2.91;58.34
69208;SHT31;56321;47.662;8.878;2023-02-28T15:35:37;2.96;58.39
69208;SHT31;56321;47.662;8.878;2023-02-28T15:38:26;2.96;58.40
69208;SHT31;56321;47.662;8.878;2023-02-28T15:40:57;2.96;58.45
69208;SHT31;56321;47.662;8.878;2023-02-28T15:43:30;2.94;58.67
69208;SHT31;56321;47.662;8.878;2023-02-28T15:46:01;2.96;58.67
69208;SHT31;56321;47.662;8.878;2023-02-28T15:48:35;2.93;58.66
69208;SHT31;56321;47.662;8.878;2023-02-28T15:53:48;2.86;58.60
69208;SHT31;56321;47.662;8.878;2023-02-28T15:56:23;2.80;58.92
69208;SHT31;56321;47.662;8.878;2023-02-28T15:58:49;2.84;59.08
69208;SHT31;56321;47.662;8.878;2023-02-28T16:01:25;2.84;59.13
69208;SHT31;56321;47.662;8.878;2023-02-28T16:03:53;2.80;59.14
69208;SHT31;56321;47.662;8.878;2023-02-28T16:09:26;2.75;59.20
69208;SHT31;56321;47.662;8.878;2023-02-28T16:11:54;2.70;59.22
69208;SHT31;56321;47.662;8.878;2023-02-28T16:14:23;2.66;59.32
69208;SHT31;56321;47.662;8.878;2023-02-28T16:16:50;2.64;59.41
69208;SHT31;56321;47.662;8.878;2023-02-28T16:19:17;2.63;59.45
69208;SHT31;56321;47.662;8.878;2023-02-28T16:21:42;2.64;59.58
69208;SHT31;56321;47.662;8.878;2023-02-28T16:24:07;2.64;59.55
69208;SHT31;56321;47.662;8.878;2023-02-28T16:26:33;2.63;59.69
69208;SHT31;56321;47.662;8.878;2023-02-28T16:29:00;2.64;59.82
69208;SHT31;56321;47.662;8.878;2023-02-28T16:31:27;2.66;59.74
69208;SHT31;56321;47.662;8.878;2023-02-28T16:33:53;2.64;59.78
69208;SHT31;56321;47.662;8.878;2023-02-28T16:36:21;2.63;59.72
69208;SHT31;56321;47.662;8.878;2023-02-28T16:38:48;2.63;59.78
69208;SHT31;56321;47.662;8.878;2023-02-28T16:41:22;2.56;59.82
69208;SHT31;56321;47.662;8.878;2023-02-28T16:43:50;2.53;59.82
69208;SHT31;56321;47.662;8.878;2023-02-28T16:46:16;2.50;60.04
69208;SHT31;56321;47.662;8.878;2023-02-28T16:48:43;2.50;60.07
69208;SHT31;56321;47.662;8.878;2023-02-28T16:51:12;2.49;60.11
69208;SHT31;56321;47.662;8.878;2023-02-28T16:53:38;2.46;60.10
69208;SHT31;56321;47.662;8.878;2023-02-28T16:56:03;2.38;60.22
69208;SHT31;56321;47.662;8.878;2023-02-28T16:58:29;2.31;60.30
69208;SHT31;56321;47.662;8.878;2023-02-28T17:00:54;2.26;60.45
69208;SHT31;56321;47.662;8.878;2023-02-28T17:03:26;2.25;60.80
69208;SHT31;56321;47.662;8.878;2023-02-28T17:05:52;2.22;60.65
69208;SHT31;56321;47.662;8.878;2023-02-28T17:08:18;2.22;60.76
69208;SHT31;56321;47.662;8.878;2023-02-28T17:10:44;2.21;60.82
69208;SHT31;56321;47.662;8.878;2023-02-28T17:13:09;2.17;60.82
69208;SHT31;56321;47.662;8.878;2023-02-28T17:15:35;2.14;60.90
69208;SHT31;56321;47.662;8.878;2023-02-28T17:18:00;2.14;61.03
69208;SHT31;56321;47.662;8.878;2023-02-28T17:20:26;2.14;61.18
69208;SHT31;56321;47.662;8.878;2023-02-28T17:22:53;2.11;61.14
69208;SHT31;56321;47.662;8.878;2023-02-28T17:25:18;2.12;61.21
69208;SHT31;56321;47.662;8.878;2023-02-28T17:27:44;2.12;61.15
69208;SHT31;56321;47.662;8.878;2023-02-28T17:30:14;2.11;61.27
69208;SHT31;56321;47.662;8.878;2023-02-28T17:32:41;2.12;61.28
69208;SHT31;56321;47.662;8.878;2023-02-28T17:35:07;2.10;61.18
69208;SHT31;56321;47.662;8.878;2023-02-28T17:37:32;2.05;61.27
69208;SHT31;56321;47.662;8.878;2023-02-28T17:39:57;2.05;61.44
69208;SHT31;56321;47.662;8.878;2023-02-28T17:42:23;2.05;61.49
69208;SHT31;56321;47.662;8.878;2023-02-28T17:44:48;2.02;61.55
69208;SHT31;56321;47.662;8.878;2023-02-28T17:47:13;2.04;61.64
69208;SHT31;56321;47.662;8.878;2023-02-28T17:49:39;2.02;61.68
69208;SHT31;56321;47.662;8.878;2023-02-28T17:52:04;2.00;61.77
69208;SHT31;56321;47.662;8.878;2023-02-28T17:54:29;1.98;61.87
69208;SHT31;56321;47.662;8.878;2023-02-28T17:56:54;1.95;61.93
69208;SHT31;56321;47.662;8.878;2023-02-28T17:59:20;1.95;62.01
69208;SHT31;56321;47.662;8.878;2023-02-28T18:01:45;1.93;62.08
69208;SHT31;56321;47.662;8.878;2023-02-28T18:04:11;1.90;62.17
69208;SHT31;56321;47.662;8.878;2023-02-28T18:06:38;1.90;62.22
69208;SHT31;56321;47.662;8.878;2023-02-28T18:09:12;1.84;62.29
69208;SHT31;56321;47.662;8.878;2023-02-28T18:11:37;1.84;62.47
69208;SHT31;56321;47.662;8.878;2023-02-28T18:14:14;1.81;62.57
69208;SHT31;56321;47.662;8.878;2023-02-28T18:16:40;1.77;62.64
69208;SHT31;56321;47.662;8.878;2023-02-28T18:19:06;1.75;62.57